sensor_id;sensor_type;location;lat;lon;timestamp;temperature;humidity
70076;DHT22;63241;51.056;3.698;2023-04-08T00:05:37;10.30;99.90
70076;DHT22;63241;51.056;3.698;2023-04-08T00:08:05;10.30;99.90
70076;DHT22;63241;51.056;3.698;2023-04-08T00:10:34;10.30;99.90
70076;DHT22;63241;51.056;3.698;2023-04-08T00:13:02;10.30;99.90
70076;DHT22;63241;51.056;3.698;2023-04-08T00:16:02;10.20;99.90
70076;DHT22;63241;51.056;3.698;2023-04-08T00:19:13;10.30;99.90
70076;DHT22;63241;51.056;3.698;2023-04-08T00:21:41;10.20;99.90
70076;DHT22;63241;51.056;3.698;2023-04-08T00:24:08;10.20;99.90
70076;DHT22;63241;51.056;3.698;2023-04-08T00:26:36;10.20;99.90
70076;DHT22;63241;51.056;3.698;2023-04-08T00:32:45;10.20;99.90
70076;DHT22;63241;51.056;3.698;2023-04-08T00:35:13;10.20;99.90
70076;DHT22;63241;51.056;3.698;2023-04-08T00:37:41;10.20;99.90
70076;DHT22;63241;51.056;3.698;2023-04-08T00:40:09;10.20;99.90
70076;DHT22;63241;51.056;3.698;2023-04-08T00:46:25;10.20;99.90
70076;DHT22;63241;51.056;3.698;2023-04-08T00:48:53;10.20;99.90
70076;DHT22;63241;51.056;3.698;2023-04-08T00:51:23;10.20;99.90
70076;DHT22;63241;51.056;3.698;2023-04-08T00:53:51;10.20;99.90
70076;DHT22;63241;51.056;3.698;2023-04-08T01:00:16;10.10;99.90
70076;DHT22;63241;51.056;3.698;2023-04-08T01:08:01;10.20;99.90
70076;DHT22;63241;51.056;3.698;2023-04-08T01:14:00;10.20;99.90
70076;DHT22;63241;51.056;3.698;2023-04-08T01:16:28;10.20;99.90
70076;DHT22;63241;51.056;3.698;2023-04-08T01:18:56;10.20;99.90
70076;DHT22;63241;51.056;3.698;2023-04-08T01:21:24;10.20;99.90
70076;DHT22;63241;51.056;3.698;2023-04-08T01:27:36;10.20;99.90
70076;DHT22;63241;51.056;3.698;2023-04-08T01:30:06;10.20;99.90
70076;DHT22;63241;51.056;3.698;2023-04-08T01:32:36;10.20;99.90
70076;DHT22;63241;51.056;3.698;2023-04-08T01:35:05;10.20;99.90
70076;DHT22;63241;51.056;3.698;2023-04-08T01:41:08;10.20;99.90
70076;DHT22;63241;51.056;3.698;2023-04-08T01:43:38;10.20;99.90
70076;DHT22;63241;51.056;3.698;2023-04-08T01:46:10;10.20;99.90
70076;DHT22;63241;51.056;3.698;2023-04-08T01:48:39;10.20;99.90
70076;DHT22;63241;51.056;3.698;2023-04-08T01:57:27;10.20;99.90
70076;DHT22;63241;51.056;3.698;2023-04-08T01:59:58;10.20;99.90
70076;DHT22;63241;51.056;3.698;2023-04-08T02:02:26;10.20;99.90
70076;DHT22;63241;51.056;3.698;2023-04-08T02:08:28;10.20;99.90
70076;DHT22;63241;51.056;3.698;2023-04-08T02:10:56;10.20;99.90
70076;DHT22;63241;51.056;3.698;2023-04-08T02:13:23;10.20;99.90
70076;DHT22;63241;51.056;3.698;2023-04-08T02:15:56;10.20;99.90
70076;DHT22;63241;51.056;3.698;2023-04-08T02:21:58;10.20;99.90
70076;DHT22;63241;51.056;3.698;2023-04-08T02:24:18;10.20;99.90
70076;DHT22;63241;51.056;3.698;2023-04-08T02:26:48;10.20;99.90
70076;DHT22;63241;51.056;3.698;2023-04-08T02:29:17;10.20;99.90
70076;DHT22;63241;51.056;3.698;2023-04-08T02:35:42;10.20;99.90
70076;DHT22;63241;51.056;3.698;2023-04-08T02:38:12;10.20;99.90
70076;DHT22;63241;51.056;3.698;2023-04-08T02:40:40;10.20;99.90
70076;DHT22;63241;51.056;3.698;2023-04-08T02:43:08;10.20;99.90
70076;DHT22;63241;51.056;3.698;2023-04-08T02:49:21;10.20;99.90
70076;DHT22;63241;51.056;3.698;2023-04-08T02:51:49;10.20;99.90
70076;DHT22;63241;51.056;3.698;2023-04-08T02:54:16;10.20;99.90
70076;DHT22;63241;51.056;3.698;2023-04-08T02:56:44;10.10;99.90
70076;DHT22;63241;51.056;3.698;2023-04-08T03:02:57;10.10;99.90
70076;DHT22;63241;51.056;3.698;2023-04-08T03:05:25;10.20;99.90
70076;DHT22;63241;51.056;3.698;2023-04-08T03:07:54;10.10;99.90
70076;DHT22;63241;51.056;3.698;2023-04-08T03:10:21;10.10;99.90
70076;DHT22;63241;51.056;3.698;2023-04-08T03:16:27;10.10;99.90
70076;DHT22;63241;51.056;3.698;2023-04-08T03:18:54;10.20;99.90
70076;DHT22;63241;51.056;3.698;2023-04-08T03:21:22;10.10;99.90
70076;DHT22;63241;51.056;3.698;2023-04-08T03:23:50;10.20;99.90
70076;DHT22;63241;51.056;3.698;2023-04-08T03:30:17;10.20;99.90
70076;DHT22;63241;51.056;3.698;2023-04-08T03:32:45;10.20;99.90
70076;DHT22;63241;51.056;3.698;2023-04-08T03:35:12;10.20;99.90
70076;DHT22;63241;51.056;3.698;2023-04-08T03:37:40;10.20;99.90
70076;DHT22;63241;51.056;3.698;2023-04-08T03:43:52;10.20;99.90
70076;DHT22;63241;51.056;3.698;2023-04-08T03:46:20;10.20;99.90
70076;DHT22;63241;51.056;3.698;2023-04-08T03:48:48;10.20;99.90
70076;DHT22;63241;51.056;3.698;2023-04-08T03:51:16;10.10;99.90
70076;DHT22;63241;51.056;3.698;2023-04-08T03:57:30;10.10;99.90
70076;DHT22;63241;51.056;3.698;2023-04-08T03:59:58;10.10;99.90
70076;DHT22;63241;51.056;3.698;2023-04-08T04:02:26;10.10;99.90
70076;DHT22;63241;51.056;3.698;2023-04-08T04:04:54;10.10;99.90
70076;DHT22;63241;51.056;3.698;2023-04-08T04:16:04;9.90;99.90
70076;DHT22;63241;51.056;3.698;2023-04-08T04:18:32;9.80;99.90
70076;DHT22;63241;51.056;3.698;2023-04-08T04:21:00;9.80;99.90
70076;DHT22;63241;51.056;3.698;2023-04-08T04:23:27;9.90;99.90
70076;DHT22;63241;51.056;3.698;2023-04-08T04:26:19;9.90;99.90
70076;DHT22;63241;51.056;3.698;2023-04-08T04:28:46;9.90;99.90
70076;DHT22;63241;51.056;3.698;2023-04-08T04:31:23;9.90;99.90
70076;DHT22;63241;51.056;3.698;2023-04-08T04:33:48;10.00;99.90
70076;DHT22;63241;51.056;3.698;2023-04-08T04:36:16;10.00;99.90
70076;DHT22;63241;51.056;3.698;2023-04-08T04:38:45;10.00;99.90
70076;DHT22;63241;51.056;3.698;2023-04-08T04:41:13;10.00;99.90
70076;DHT22;63241;51.056;3.698;2023-04-08T04:43:41;10.00;99.90
70076;DHT22;63241;51.056;3.698;2023-04-08T04:46:09;10.00;99.90
70076;DHT22;63241;51.056;3.698;2023-04-08T04:48:36;10.00;99.90
70076;DHT22;63241;51.056;3.698;2023-04-08T04:51:04;10.00;99.90
70076;DHT22;63241;51.056;3.698;2023-04-08T04:53:33;10.00;99.90
70076;DHT22;63241;51.056;3.698;2023-04-08T04:56:01;10.00;99.90
70076;DHT22;63241;51.056;3.698;2023-04-08T04:58:29;10.00;99.90
70076;DHT22;63241;51.056;3.698;2023-04-08T05:00:57;10.00;99.90
70076;DHT22;63241;51.056;3.698;2023-04-08T05:03:24;10.00;99.90
70076;DHT22;63241;51.056;3.698;2023-04-08T05:05:53;10.00;99.90
70076;DHT22;63241;51.056;3.698;2023-04-08T05:08:21;10.00;99.90
70076;DHT22;63241;51.056;3.698;2023-04-08T05:10:48;10.10;99.90
70076;DHT22;63241;51.056;3.698;2023-04-08T05:13:17;10.10;99.90
70076;DHT22;63241;51.056;3.698;2023-04-08T05:15:45;10.00;99.90
70076;DHT22;63241;51.056;3.698;2023-04-08T05:18:13;10.00;99.90
70076;DHT22;63241;51.056;3.698;2023-04-08T05:20:41;10.00;99.90
70076;DHT22;63241;51.056;3.698;2023-04-08T05:23:08;10.00;99.90
70076;DHT22;63241;51.056;3.698;2023-04-08T05:25:36;10.00;99.90
70076;DHT22;63241;51.056;3.698;2023-04-08T05:28:04;10.00;99.90
70076;DHT22;63241;51.056;3.698;2023-04-08T05:30:32;10.00;99.90
70076;DHT22;63241;51.056;3.698;2023-04-08T05:32:59;10.10;99.90
70076;DHT22;63241;51.056;3.698;2023-04-08T05:35:27;10.10;99.90
70076;DHT22;63241;51.056;3.698;2023-04-08T05:37:55;10.10;99.90
70076;DHT22;63241;51.056;3.698;2023-04-08T05:40:23;10.10;99.90
70076;DHT22;63241;51.056;3.698;2023-04-08T05:42:51;10.00;99.90
70076;DHT22;63241;51.056;3.698;2023-04-08T05:45:18;10.10;99.90
70076;DHT22;63241;51.056;3.698;2023-04-08T05:47:46;10.10;99.90
70076;DHT22;63241;51.056;3.698;2023-04-08T05:50:14;10.20;99.90
70076;DHT22;63241;51.056;3.698;2023-04-08T05:52:43;10.30;99.90
70076;DHT22;63241;51.056;3.698;2023-04-08T05:55:12;10.30;99.90
70076;DHT22;63241;51.056;3.698;2023-04-08T05:57:40;10.40;99.90
70076;DHT22;63241;51.056;3.698;2023-04-08T06:00:09;10.40;99.90
70076;DHT22;63241;51.056;3.698;2023-04-08T06:02:37;10.40;99.90
70076;DHT22;63241;51.056;3.698;2023-04-08T06:05:05;10.50;99.90
70076;DHT22;63241;51.056;3.698;2023-04-08T06:07:33;10.50;99.90
70076;DHT22;63241;51.056;3.698;2023-04-08T06:10:01;10.60;99.90
70076;DHT22;63241;51.056;3.698;2023-04-08T06:12:28;10.60;99.90
70076;DHT22;63241;51.056;3.698;2023-04-08T06:14:56;10.50;99.90
70076;DHT22;63241;51.056;3.698;2023-04-08T06:17:24;10.60;99.90
70076;DHT22;63241;51.056;3.698;2023-04-08T06:19:52;10.60;99.90
70076;DHT22;63241;51.056;3.698;2023-04-08T06:22:19;10.60;99.90
70076;DHT22;63241;51.056;3.698;2023-04-08T06:24:47;10.80;99.90
70076;DHT22;63241;51.056;3.698;2023-04-08T06:27:15;10.90;99.90
70076;DHT22;63241;51.056;3.698;2023-04-08T06:29:43;10.90;99.90
70076;DHT22;63241;51.056;3.698;2023-04-08T06:32:11;11.00;99.90
70076;DHT22;63241;51.056;3.698;2023-04-08T06:34:39;11.00;99.90
70076;DHT22;63241;51.056;3.698;2023-04-08T06:37:07;11.10;99.90
70076;DHT22;63241;51.056;3.698;2023-04-08T06:39:35;11.10;99.90
70076;DHT22;63241;51.056;3.698;2023-04-08T06:42:02;11.20;99.90
70076;DHT22;63241;51.056;3.698;2023-04-08T06:44:30;11.30;99.90
70076;DHT22;63241;51.056;3.698;2023-04-08T06:46:58;11.40;99.90
70076;DHT22;63241;51.056;3.698;2023-04-08T06:49:25;11.30;99.90
70076;DHT22;63241;51.056;3.698;2023-04-08T06:51:53;11.20;99.90
70076;DHT22;63241;51.056;3.698;2023-04-08T06:54:21;11.30;99.90
70076;DHT22;63241;51.056;3.698;2023-04-08T06:56:48;11.40;99.90
70076;DHT22;63241;51.056;3.698;2023-04-08T06:59:16;11.30;99.90
70076;DHT22;63241;51.056;3.698;2023-04-08T07:01:44;11.30;99.90
70076;DHT22;63241;51.056;3.698;2023-04-08T07:04:12;11.40;99.90
70076;DHT22;63241;51.056;3.698;2023-04-08T07:06:39;11.50;99.90
70076;DHT22;63241;51.056;3.698;2023-04-08T07:09:07;11.50;99.90
70076;DHT22;63241;51.056;3.698;2023-04-08T07:11:35;11.60;99.90
70076;DHT22;63241;51.056;3.698;2023-04-08T07:14:03;11.60;99.90
70076;DHT22;63241;51.056;3.698;2023-04-08T07:16:31;11.60;99.90
70076;DHT22;63241;51.056;3.698;2023-04-08T07:18:58;11.70;99.90
70076;DHT22;63241;51.056;3.698;2023-04-08T07:21:26;11.70;99.90
70076;DHT22;63241;51.056;3.698;2023-04-08T07:23:53;11.70;99.90
70076;DHT22;63241;51.056;3.698;2023-04-08T07:26:21;11.80;99.90
70076;DHT22;63241;51.056;3.698;2023-04-08T07:28:49;11.80;99.90
70076;DHT22;63241;51.056;3.698;2023-04-08T07:31:17;11.90;99.90
70076;DHT22;63241;51.056;3.698;2023-04-08T07:33:45;12.00;99.90
70076;DHT22;63241;51.056;3.698;2023-04-08T07:36:13;12.20;99.90
70076;DHT22;63241;51.056;3.698;2023-04-08T07:38:41;12.30;99.90
70076;DHT22;63241;51.056;3.698;2023-04-08T07:41:08;12.40;99.90
70076;DHT22;63241;51.056;3.698;2023-04-08T07:43:36;12.40;99.90
70076;DHT22;63241;51.056;3.698;2023-04-08T07:46:05;12.40;99.90
70076;DHT22;63241;51.056;3.698;2023-04-08T07:48:33;12.50;99.90
70076;DHT22;63241;51.056;3.698;2023-04-08T07:51:07;12.40;99.90
70076;DHT22;63241;51.056;3.698;2023-04-08T07:53:35;12.70;99.90
70076;DHT22;63241;51.056;3.698;2023-04-08T07:56:02;13.10;99.90
70076;DHT22;63241;51.056;3.698;2023-04-08T07:58:30;13.90;99.90
70076;DHT22;63241;51.056;3.698;2023-04-08T08:00:58;15.50;99.90
70076;DHT22;63241;51.056;3.698;2023-04-08T08:03:25;17.70;99.90
70076;DHT22;63241;51.056;3.698;2023-04-08T08:05:53;20.30;93.70
70076;DHT22;63241;51.056;3.698;2023-04-08T08:08:21;23.60;70.90
70076;DHT22;63241;51.056;3.698;2023-04-08T08:10:48;27.60;59.50
70076;DHT22;63241;51.056;3.698;2023-04-08T08:13:16;30.10;44.70
70076;DHT22;63241;51.056;3.698;2023-04-08T08:15:45;32.20;41.60
70076;DHT22;63241;51.056;3.698;2023-04-08T08:18:13;33.40;35.20
70076;DHT22;63241;51.056;3.698;2023-04-08T08:20:40;34.00;34.80
70076;DHT22;63241;51.056;3.698;2023-04-08T08:23:08;36.00;31.30
70076;DHT22;63241;51.056;3.698;2023-04-08T08:25:36;36.50;28.70
70076;DHT22;63241;51.056;3.698;2023-04-08T08:28:04;35.70;28.60
70076;DHT22;63241;51.056;3.698;2023-04-08T08:30:32;34.40;28.20
70076;DHT22;63241;51.056;3.698;2023-04-08T08:33:00;33.70;28.60
70076;DHT22;63241;51.056;3.698;2023-04-08T08:35:27;32.60;30.10
70076;DHT22;63241;51.056;3.698;2023-04-08T08:37:55;32.80;31.00
70076;DHT22;63241;51.056;3.698;2023-04-08T08:40:23;32.80;29.80
70076;DHT22;63241;51.056;3.698;2023-04-08T08:42:51;31.70;30.00
70076;DHT22;63241;51.056;3.698;2023-04-08T08:45:19;30.60;30.60
70076;DHT22;63241;51.056;3.698;2023-04-08T08:47:47;28.50;32.70
70076;DHT22;63241;51.056;3.698;2023-04-08T08:50:15;27.20;36.60
70076;DHT22;63241;51.056;3.698;2023-04-08T08:52:52;26.20;37.80
70076;DHT22;63241;51.056;3.698;2023-04-08T08:55:20;25.40;39.20
70076;DHT22;63241;51.056;3.698;2023-04-08T08:57:51;24.70;39.70
70076;DHT22;63241;51.056;3.698;2023-04-08T09:00:29;23.90;42.70
70076;DHT22;63241;51.056;3.698;2023-04-08T09:02:48;23.40;44.10
70076;DHT22;63241;51.056;3.698;2023-04-08T09:05:16;23.10;45.20
70076;DHT22;63241;51.056;3.698;2023-04-08T09:07:43;22.50;46.10
70076;DHT22;63241;51.056;3.698;2023-04-08T09:10:11;21.90;47.70
70076;DHT22;63241;51.056;3.698;2023-04-08T09:12:54;21.10;49.60
70076;DHT22;63241;51.056;3.698;2023-04-08T09:15:22;20.70;50.40
70076;DHT22;63241;51.056;3.698;2023-04-08T09:17:50;20.20;51.30
70076;DHT22;63241;51.056;3.698;2023-04-08T09:20:17;19.80;52.70
70076;DHT22;63241;51.056;3.698;2023-04-08T09:23:05;19.30;53.80
70076;DHT22;63241;51.056;3.698;2023-04-08T09:25:27;18.80;55.00
70076;DHT22;63241;51.056;3.698;2023-04-08T09:27:51;18.70;56.20
70076;DHT22;63241;51.056;3.698;2023-04-08T09:30:26;18.70;57.20
70076;DHT22;63241;51.056;3.698;2023-04-08T09:32:51;18.60;57.90
70076;DHT22;63241;51.056;3.698;2023-04-08T09:35:19;18.60;57.70
70076;DHT22;63241;51.056;3.698;2023-04-08T09:37:48;18.30;58.20
70076;DHT22;63241;51.056;3.698;2023-04-08T09:40:16;18.00;57.90
70076;DHT22;63241;51.056;3.698;2023-04-08T09:42:46;17.50;59.70
70076;DHT22;63241;51.056;3.698;2023-04-08T09:45:16;17.50;60.90
70076;DHT22;63241;51.056;3.698;2023-04-08T09:50:19;18.20;60.70
70076;DHT22;63241;51.056;3.698;2023-04-08T09:52:51;18.30;60.10
70076;DHT22;63241;51.056;3.698;2023-04-08T09:55:21;18.30;59.60
70076;DHT22;63241;51.056;3.698;2023-04-08T09:57:54;18.20;60.00
70076;DHT22;63241;51.056;3.698;2023-04-08T10:00:36;18.00;60.30
70076;DHT22;63241;51.056;3.698;2023-04-08T10:05:54;17.30;63.20
70076;DHT22;63241;51.056;3.698;2023-04-08T10:08:26;17.00;65.00
70076;DHT22;63241;51.056;3.698;2023-04-08T10:10:55;16.80;67.10
70076;DHT22;63241;51.056;3.698;2023-04-08T10:13:23;16.80;66.80
70076;DHT22;63241;51.056;3.698;2023-04-08T10:18:38;17.20;69.70
70076;DHT22;63241;51.056;3.698;2023-04-08T10:21:53;17.50;68.40
70076;DHT22;63241;51.056;3.698;2023-04-08T10:23:58;17.60;68.10
70076;DHT22;63241;51.056;3.698;2023-04-08T10:26:35;17.50;67.10
70076;DHT22;63241;51.056;3.698;2023-04-08T10:29:29;17.50;66.70
70076;DHT22;63241;51.056;3.698;2023-04-08T10:31:57;17.60;67.30
70076;DHT22;63241;51.056;3.698;2023-04-08T10:34:25;17.60;67.00
70076;DHT22;63241;51.056;3.698;2023-04-08T10:36:54;17.60;67.70
70076;DHT22;63241;51.056;3.698;2023-04-08T10:39:24;17.60;67.70
70076;DHT22;63241;51.056;3.698;2023-04-08T10:41:53;17.70;66.90
70076;DHT22;63241;51.056;3.698;2023-04-08T10:44:23;17.70;67.40
70076;DHT22;63241;51.056;3.698;2023-04-08T10:46:53;17.70;65.90
70076;DHT22;63241;51.056;3.698;2023-04-08T10:49:21;17.60;67.70
70076;DHT22;63241;51.056;3.698;2023-04-08T10:51:49;17.90;67.90
70076;DHT22;63241;51.056;3.698;2023-04-08T10:54:17;17.90;64.70
70076;DHT22;63241;51.056;3.698;2023-04-08T10:56:49;17.80;64.80
70076;DHT22;63241;51.056;3.698;2023-04-08T10:59:28;17.70;65.40
70076;DHT22;63241;51.056;3.698;2023-04-08T11:01:56;17.70;64.80
70076;DHT22;63241;51.056;3.698;2023-04-08T11:04:24;17.90;66.60
70076;DHT22;63241;51.056;3.698;2023-04-08T11:06:52;17.90;64.40
70076;DHT22;63241;51.056;3.698;2023-04-08T11:09:20;17.90;63.60
70076;DHT22;63241;51.056;3.698;2023-04-08T11:11:48;18.30;64.70
70076;DHT22;63241;51.056;3.698;2023-04-08T11:14:16;18.40;63.20
70076;DHT22;63241;51.056;3.698;2023-04-08T11:16:45;18.60;62.80
70076;DHT22;63241;51.056;3.698;2023-04-08T11:19:13;18.70;60.50
70076;DHT22;63241;51.056;3.698;2023-04-08T11:21:41;18.60;60.40
70076;DHT22;63241;51.056;3.698;2023-04-08T11:24:10;18.80;61.50
70076;DHT22;63241;51.056;3.698;2023-04-08T11:26:42;19.10;59.90
70076;DHT22;63241;51.056;3.698;2023-04-08T11:29:12;19.50;60.40
70076;DHT22;63241;51.056;3.698;2023-04-08T11:31:42;19.50;59.70
70076;DHT22;63241;51.056;3.698;2023-04-08T11:34:10;19.40;58.10
70076;DHT22;63241;51.056;3.698;2023-04-08T11:36:39;19.40;58.60
70076;DHT22;63241;51.056;3.698;2023-04-08T11:39:08;19.60;59.80
70076;DHT22;63241;51.056;3.698;2023-04-08T11:41:38;19.80;59.60
70076;DHT22;63241;51.056;3.698;2023-04-08T11:44:07;19.60;57.00
70076;DHT22;63241;51.056;3.698;2023-04-08T11:46:35;19.50;59.20
70076;DHT22;63241;51.056;3.698;2023-04-08T11:49:05;19.60;58.90
70076;DHT22;63241;51.056;3.698;2023-04-08T11:51:34;19.60;58.20
70076;DHT22;63241;51.056;3.698;2023-04-08T11:54:08;19.60;57.90
70076;DHT22;63241;51.056;3.698;2023-04-08T11:56:45;19.50;59.10
70076;DHT22;63241;51.056;3.698;2023-04-08T11:59:13;19.30;58.30
70076;DHT22;63241;51.056;3.698;2023-04-08T12:01:41;19.20;59.40
70076;DHT22;63241;51.056;3.698;2023-04-08T12:04:10;19.30;59.80
70076;DHT22;63241;51.056;3.698;2023-04-08T12:06:37;19.40;59.40
70076;DHT22;63241;51.056;3.698;2023-04-08T12:09:07;19.30;59.10
70076;DHT22;63241;51.056;3.698;2023-04-08T12:11:34;19.20;59.40
70076;DHT22;63241;51.056;3.698;2023-04-08T12:14:02;19.10;59.70
70076;DHT22;63241;51.056;3.698;2023-04-08T12:16:30;18.90;59.70
70076;DHT22;63241;51.056;3.698;2023-04-08T12:18:57;18.80;61.80
70076;DHT22;63241;51.056;3.698;2023-04-08T12:21:25;18.80;61.40
70076;DHT22;63241;51.056;3.698;2023-04-08T12:23:53;18.80;60.20
70076;DHT22;63241;51.056;3.698;2023-04-08T12:26:21;18.80;61.20
70076;DHT22;63241;51.056;3.698;2023-04-08T12:28:49;19.00;60.20
70076;DHT22;63241;51.056;3.698;2023-04-08T12:31:16;19.50;62.00
70076;DHT22;63241;51.056;3.698;2023-04-08T12:33:44;19.70;59.30
70076;DHT22;63241;51.056;3.698;2023-04-08T12:36:11;19.90;59.60
70076;DHT22;63241;51.056;3.698;2023-04-08T12:38:39;19.80;57.50
70076;DHT22;63241;51.056;3.698;2023-04-08T12:41:07;20.20;59.10
70076;DHT22;63241;51.056;3.698;2023-04-08T12:43:34;20.40;58.70
70076;DHT22;63241;51.056;3.698;2023-04-08T12:46:02;20.70;57.40
70076;DHT22;63241;51.056;3.698;2023-04-08T12:48:30;20.70;56.70
70076;DHT22;63241;51.056;3.698;2023-04-08T12:50:58;20.80;56.90
70076;DHT22;63241;51.056;3.698;2023-04-08T12:53:26;21.30;56.70
70076;DHT22;63241;51.056;3.698;2023-04-08T12:55:54;21.60;56.30
70076;DHT22;63241;51.056;3.698;2023-04-08T12:58:24;21.30;53.00
70076;DHT22;63241;51.056;3.698;2023-04-08T13:00:52;21.10;54.40
70076;DHT22;63241;51.056;3.698;2023-04-08T13:03:20;20.90;55.10
70076;DHT22;63241;51.056;3.698;2023-04-08T13:05:47;21.00;54.90
70076;DHT22;63241;51.056;3.698;2023-04-08T13:08:15;21.40;55.40
70076;DHT22;63241;51.056;3.698;2023-04-08T13:10:43;22.10;54.30
70076;DHT22;63241;51.056;3.698;2023-04-08T13:13:11;22.70;52.70
70076;DHT22;63241;51.056;3.698;2023-04-08T13:15:39;22.60;52.00
70076;DHT22;63241;51.056;3.698;2023-04-08T13:18:07;22.50;50.90
70076;DHT22;63241;51.056;3.698;2023-04-08T13:20:35;22.40;52.30
70076;DHT22;63241;51.056;3.698;2023-04-08T13:23:03;22.70;52.50
70076;DHT22;63241;51.056;3.698;2023-04-08T13:25:30;23.20;49.40
70076;DHT22;63241;51.056;3.698;2023-04-08T13:27:58;24.20;51.00
70076;DHT22;63241;51.056;3.698;2023-04-08T13:30:26;25.10;48.70
70076;DHT22;63241;51.056;3.698;2023-04-08T13:32:53;24.70;46.30
70076;DHT22;63241;51.056;3.698;2023-04-08T13:35:21;24.50;47.20
70076;DHT22;63241;51.056;3.698;2023-04-08T13:37:49;24.00;46.10
70076;DHT22;63241;51.056;3.698;2023-04-08T13:40:17;23.20;46.90
70076;DHT22;63241;51.056;3.698;2023-04-08T13:42:44;22.40;49.50
70076;DHT22;63241;51.056;3.698;2023-04-08T13:45:12;22.20;53.10
70076;DHT22;63241;51.056;3.698;2023-04-08T13:47:40;22.70;53.20
70076;DHT22;63241;51.056;3.698;2023-04-08T13:50:08;23.00;50.60
70076;DHT22;63241;51.056;3.698;2023-04-08T13:52:36;23.20;51.50
70076;DHT22;63241;51.056;3.698;2023-04-08T13:55:04;23.60;50.20
70076;DHT22;63241;51.056;3.698;2023-04-08T13:57:31;23.20;48.50
70076;DHT22;63241;51.056;3.698;2023-04-08T13:59:59;22.90;51.20
70076;DHT22;63241;51.056;3.698;2023-04-08T14:02:27;22.80;49.60
70076;DHT22;63241;51.056;3.698;2023-04-08T14:04:54;23.00;51.20
70076;DHT22;63241;51.056;3.698;2023-04-08T14:07:23;22.60;48.70
70076;DHT22;63241;51.056;3.698;2023-04-08T14:09:50;22.60;50.10
70076;DHT22;63241;51.056;3.698;2023-04-08T14:12:18;22.10;49.70
70076;DHT22;63241;51.056;3.698;2023-04-08T14:14:46;21.70;51.80
70076;DHT22;63241;51.056;3.698;2023-04-08T14:17:13;21.20;52.10
70076;DHT22;63241;51.056;3.698;2023-04-08T14:19:41;21.10;53.20
70076;DHT22;63241;51.056;3.698;2023-04-08T14:22:09;21.00;52.70
70076;DHT22;63241;51.056;3.698;2023-04-08T14:24:37;20.70;54.10
70076;DHT22;63241;51.056;3.698;2023-04-08T14:27:05;20.50;54.60
70076;DHT22;63241;51.056;3.698;2023-04-08T14:29:33;20.30;55.70
70076;DHT22;63241;51.056;3.698;2023-04-08T14:32:01;20.00;56.20
70076;DHT22;63241;51.056;3.698;2023-04-08T14:34:28;19.90;56.00
70076;DHT22;63241;51.056;3.698;2023-04-08T14:36:56;19.60;57.40
70076;DHT22;63241;51.056;3.698;2023-04-08T14:39:24;19.40;57.10
70076;DHT22;63241;51.056;3.698;2023-04-08T14:41:52;19.10;58.60
70076;DHT22;63241;51.056;3.698;2023-04-08T14:44:20;19.00;58.20
70076;DHT22;63241;51.056;3.698;2023-04-08T14:46:47;18.80;60.00
70076;DHT22;63241;51.056;3.698;2023-04-08T14:49:15;19.10;61.30
70076;DHT22;63241;51.056;3.698;2023-04-08T14:51:43;19.30;58.80
70076;DHT22;63241;51.056;3.698;2023-04-08T14:54:11;19.30;58.20
70076;DHT22;63241;51.056;3.698;2023-04-08T14:56:39;19.40;59.20
70076;DHT22;63241;51.056;3.698;2023-04-08T14:59:07;19.20;58.00
70076;DHT22;63241;51.056;3.698;2023-04-08T15:01:34;19.20;59.50
70076;DHT22;63241;51.056;3.698;2023-04-08T15:04:02;19.50;58.60
70076;DHT22;63241;51.056;3.698;2023-04-08T15:06:30;19.60;58.50
70076;DHT22;63241;51.056;3.698;2023-04-08T15:08:58;19.70;59.70
70076;DHT22;63241;51.056;3.698;2023-04-08T15:11:26;19.90;58.70
70076;DHT22;63241;51.056;3.698;2023-04-08T15:13:54;19.80;58.10
70076;DHT22;63241;51.056;3.698;2023-04-08T15:16:22;19.70;58.20
70076;DHT22;63241;51.056;3.698;2023-04-08T15:18:50;19.60;58.70
70076;DHT22;63241;51.056;3.698;2023-04-08T15:21:17;19.60;58.80
70076;DHT22;63241;51.056;3.698;2023-04-08T15:23:45;19.40;58.40
70076;DHT22;63241;51.056;3.698;2023-04-08T15:26:13;19.10;58.30
70076;DHT22;63241;51.056;3.698;2023-04-08T15:28:40;19.20;58.90
70076;DHT22;63241;51.056;3.698;2023-04-08T15:31:08;19.00;58.30
70076;DHT22;63241;51.056;3.698;2023-04-08T15:33:37;18.80;59.00
70076;DHT22;63241;51.056;3.698;2023-04-08T15:36:06;18.70;60.00
70076;DHT22;63241;51.056;3.698;2023-04-08T15:38:34;18.80;59.60
70076;DHT22;63241;51.056;3.698;2023-04-08T15:41:02;18.70;59.60
70076;DHT22;63241;51.056;3.698;2023-04-08T15:43:30;18.70;59.50
70076;DHT22;63241;51.056;3.698;2023-04-08T15:45:58;18.90;60.10
70076;DHT22;63241;51.056;3.698;2023-04-08T15:48:25;19.10;60.30
70076;DHT22;63241;51.056;3.698;2023-04-08T15:50:53;19.20;58.80
70076;DHT22;63241;51.056;3.698;2023-04-08T15:53:20;19.30;59.40
70076;DHT22;63241;51.056;3.698;2023-04-08T15:55:48;19.20;59.40
70076;DHT22;63241;51.056;3.698;2023-04-08T15:58:16;19.10;60.50
70076;DHT22;63241;51.056;3.698;2023-04-08T16:00:44;18.90;60.10
70076;DHT22;63241;51.056;3.698;2023-04-08T16:03:12;18.60;62.60
70076;DHT22;63241;51.056;3.698;2023-04-08T16:05:40;18.50;63.20
70076;DHT22;63241;51.056;3.698;2023-04-08T16:08:08;18.30;64.10
70076;DHT22;63241;51.056;3.698;2023-04-08T16:10:35;18.10;63.80
70076;DHT22;63241;51.056;3.698;2023-04-08T16:13:03;18.00;62.70
70076;DHT22;63241;51.056;3.698;2023-04-08T16:15:31;17.80;64.10
70076;DHT22;63241;51.056;3.698;2023-04-08T16:18:02;17.90;64.60
70076;DHT22;63241;51.056;3.698;2023-04-08T16:20:32;17.90;65.50
70076;DHT22;63241;51.056;3.698;2023-04-08T16:22:59;18.10;66.10
70076;DHT22;63241;51.056;3.698;2023-04-08T16:25:27;18.20;66.40
70076;DHT22;63241;51.056;3.698;2023-04-08T16:27:55;18.10;65.50
70076;DHT22;63241;51.056;3.698;2023-04-08T16:30:22;18.20;66.50
70076;DHT22;63241;51.056;3.698;2023-04-08T16:32:50;18.20;65.90
70076;DHT22;63241;51.056;3.698;2023-04-08T16:35:18;18.10;64.20
70076;DHT22;63241;51.056;3.698;2023-04-08T16:37:47;18.10;65.50
70076;DHT22;63241;51.056;3.698;2023-04-08T16:40:15;18.00;64.80
70076;DHT22;63241;51.056;3.698;2023-04-08T16:42:43;17.90;65.90
70076;DHT22;63241;51.056;3.698;2023-04-08T16:45:11;17.90;65.90
70076;DHT22;63241;51.056;3.698;2023-04-08T16:47:39;17.60;66.10
70076;DHT22;63241;51.056;3.698;2023-04-08T16:50:08;17.50;67.00
70076;DHT22;63241;51.056;3.698;2023-04-08T16:52:37;17.40;67.80
70076;DHT22;63241;51.056;3.698;2023-04-08T16:55:05;17.40;68.50
70076;DHT22;63241;51.056;3.698;2023-04-08T16:57:33;17.50;68.10
70076;DHT22;63241;51.056;3.698;2023-04-08T17:00:01;17.50;66.80
70076;DHT22;63241;51.056;3.698;2023-04-08T17:02:28;17.50;66.70
70076;DHT22;63241;51.056;3.698;2023-04-08T17:04:56;17.60;67.00
70076;DHT22;63241;51.056;3.698;2023-04-08T17:07:24;17.60;66.30